sensor_id;sensor_type;location;lat;lon;timestamp;pressure;altitude;pressure_sealevel;temperature;humidity
57114;BME280;42994;51.606;9.988;2022-10-18T00:02:22;100044.06;;;15.75;100.00
57114;BME280;42994;51.606;9.988;2022-10-18T00:04:48;100040.72;;;15.73;100.00
57114;BME280;42994;51.606;9.988;2022-10-18T00:07:15;100042.78;;;15.71;100.00
57114;BME280;42994;51.606;9.988;2022-10-18T00:09:41;100046.28;;;15.65;100.00
57114;BME280;42994;51.606;9.988;2022-10-18T00:12:08;100040.25;;;15.63;100.00
57114;BME280;42994;51.606;9.988;2022-10-18T00:14:36;100040.66;;;15.60;100.00
57114;BME280;42994;51.606;9.988;2022-10-18T00:17:03;100054.53;;;15.56;100.00
57114;BME280;42994;51.606;9.988;2022-10-18T00:19:29;100055.19;;;15.58;100.00
57114;BME280;42994;51.606;9.988;2022-10-18T00:21:56;100049.13;;;15.56;100.00
57114;BME280;42994;51.606;9.988;2022-10-18T00:24:23;100049.75;;;15.52;100.00
57114;BME280;42994;51.606;9.988;2022-10-18T00:26:50;100056.38;;;15.49;100.00
57114;BME280;42994;51.606;9.988;2022-10-18T00:29:16;100049.56;;;15.53;100.00
57114;BME280;42994;51.606;9.988;2022-10-18T00:31:44;100049.34;;;15.55;100.00
57114;BME280;42994;51.606;9.988;2022-10-18T00:34:12;100057.44;;;15.55;100.00
57114;BME280;42994;51.606;9.988;2022-10-18T00:36:40;100064.34;;;15.57;100.00
57114;BME280;42994;51.606;9.988;2022-10-18T00:39:09;100064.97;;;15.60;100.00
57114;BME280;42994;51.606;9.988;2022-10-18T00:41:37;100069.34;;;15.61;100.00
57114;BME280;42994;51.606;9.988;2022-10-18T00:44:06;100063.72;;;15.62;100.00
57114;BME280;42994;51.606;9.988;2022-10-18T00:46:34;100064.34;;;15.57;100.00
57114;BME280;42994;51.606;9.988;2022-10-18T00:49:05;100055.16;;;15.52;100.00
57114;BME280;42994;51.606;9.988;2022-10-18T00:51:35;100057.44;;;15.55;100.00
57114;BME280;42994;51.606;9.988;2022-10-18T00:54:03;100064.09;;;15.52;100.00
57114;BME280;42994;51.606;9.988;2022-10-18T00:58:57;100059.94;;;15.56;100.00
57114;BME280;42994;51.606;9.988;2022-10-18T01:01:24;100062.41;;;15.51;100.00
57114;BME280;42994;51.606;9.988;2022-10-18T01:03:51;100068.22;;;15.48;100.00
57114;BME280;42994;51.606;9.988;2022-10-18T01:06:20;100067.81;;;15.51;100.00
57114;BME280;42994;51.606;9.988;2022-10-18T01:08:59;100073.22;;;15.51;100.00
57114;BME280;42994;51.606;9.988;2022-10-18T01:11:44;100073.19;;;15.45;100.00
57114;BME280;42994;51.606;9.988;2022-10-18T01:14:23;100059.25;;;15.41;100.00
57114;BME280;42994;51.606;9.988;2022-10-18T01:16:57;100064.44;;;15.43;100.00
57114;BME280;42994;51.606;9.988;2022-10-18T01:22:27;100071.88;;;15.34;100.00
57114;BME280;42994;51.606;9.988;2022-10-18T01:25:13;100075.19;;;15.36;100.00
57114;BME280;42994;51.606;9.988;2022-10-18T01:27:46;100074.06;;;15.24;100.00
57114;BME280;42994;51.606;9.988;2022-10-18T01:30:32;100064.88;;;15.18;100.00
57114;BME280;42994;51.606;9.988;2022-10-18T01:33:09;100069.28;;;15.26;100.00
57114;BME280;42994;51.606;9.988;2022-10-18T01:35:41;100074.66;;;15.19;100.00
57114;BME280;42994;51.606;9.988;2022-10-18T01:38:11;100075.50;;;15.19;100.00
57114;BME280;42994;51.606;9.988;2022-10-18T01:40:43;100071.34;;;15.17;100.00
57114;BME280;42994;51.606;9.988;2022-10-18T01:43:13;100072.06;;;15.04;100.00
57114;BME280;42994;51.606;9.988;2022-10-18T01:45:42;100067.22;;;14.99;100.00
57114;BME280;42994;51.606;9.988;2022-10-18T01:48:10;100077.00;;;15.01;100.00
57114;BME280;42994;51.606;9.988;2022-10-18T01:50:38;100069.84;;;14.93;100.00
57114;BME280;42994;51.606;9.988;2022-10-18T01:53:05;100066.16;;;14.94;100.00
57114;BME280;42994;51.606;9.988;2022-10-18T01:55:37;100062.94;;;14.84;100.00
57114;BME280;42994;51.606;9.988;2022-10-18T01:58:11;100071.03;;;14.84;100.00
57114;BME280;42994;51.606;9.988;2022-10-18T02:00:47;100052.13;;;14.84;100.00
57114;BME280;42994;51.606;9.988;2022-10-18T02:03:20;100055.47;;;14.86;100.00
57114;BME280;42994;51.606;9.988;2022-10-18T02:05:50;100060.75;;;14.72;100.00
57114;BME280;42994;51.606;9.988;2022-10-18T02:08:24;100042.22;;;14.69;100.00
57114;BME280;42994;51.606;9.988;2022-10-18T02:10:58;100040.59;;;14.68;100.00
57114;BME280;42994;51.606;9.988;2022-10-18T02:13:29;100036.00;;;14.69;100.00
57114;BME280;42994;51.606;9.988;2022-10-18T02:16:00;100039.59;;;14.76;100.00
57114;BME280;42994;51.606;9.988;2022-10-18T02:18:31;100036.09;;;14.75;100.00
57114;BME280;42994;51.606;9.988;2022-10-18T02:21:00;100027.44;;;14.87;100.00
57114;BME280;42994;51.606;9.988;2022-10-18T02:23:29;100027.25;;;14.88;100.00
57114;BME280;42994;51.606;9.988;2022-10-18T02:25:57;100024.19;;;14.91;100.00
57114;BME280;42994;51.606;9.988;2022-10-18T02:28:24;100025.41;;;14.89;100.00
57114;BME280;42994;51.606;9.988;2022-10-18T02:30:57;100025.78;;;14.86;100.00
57114;BME280;42994;51.606;9.988;2022-10-18T02:33:33;100016.75;;;14.72;100.00
57114;BME280;42994;51.606;9.988;2022-10-18T02:36:05;100017.09;;;14.62;100.00
57114;BME280;42994;51.606;9.988;2022-10-18T02:38:37;100012.31;;;14.64;100.00
57114;BME280;42994;51.606;9.988;2022-10-18T02:41:05;100018.47;;;14.58;100.00
57114;BME280;42994;51.606;9.988;2022-10-18T02:43:32;100016.78;;;14.57;100.00
57114;BME280;42994;51.606;9.988;2022-10-18T02:46:00;100016.03;;;14.63;100.00
57114;BME280;42994;51.606;9.988;2022-10-18T02:48:28;100016.69;;;14.65;100.00
57114;BME280;42994;51.606;9.988;2022-10-18T02:50:55;100013.00;;;14.51;100.00
57114;BME280;42994;51.606;9.988;2022-10-18T02:53:21;100015.44;;;14.46;100.00
57114;BME280;42994;51.606;9.988;2022-10-18T02:55:48;100017.66;;;14.57;100.00
57114;BME280;42994;51.606;9.988;2022-10-18T02:58:14;100007.56;;;14.66;100.00
57114;BME280;42994;51.606;9.988;2022-10-18T03:00:41;100011.09;;;14.67;100.00
57114;BME280;42994;51.606;9.988;2022-10-18T03:03:07;100010.72;;;14.70;100.00
57114;BME280;42994;51.606;9.988;2022-10-18T03:05:35;100013.97;;;14.65;100.00
57114;BME280;42994;51.606;9.988;2022-10-18T03:08:02;100005.25;;;14.63;100.00
57114;BME280;42994;51.606;9.988;2022-10-18T03:10:29;100006.47;;;14.60;100.00
57114;BME280;42994;51.606;9.988;2022-10-18T03:12:56;99999.75;;;14.56;100.00
57114;BME280;42994;51.606;9.988;2022-10-18T03:15:22;100005.72;;;14.52;100.00
57114;BME280;42994;51.606;9.988;2022-10-18T03:17:49;99999.25;;;14.46;100.00
57114;BME280;42994;51.606;9.988;2022-10-18T03:20:16;99996.75;;;14.45;100.00
57114;BME280;42994;51.606;9.988;2022-10-18T03:22:44;99998.09;;;14.55;100.00
57114;BME280;42994;51.606;9.988;2022-10-18T03:25:10;99990.19;;;14.54;100.00
57114;BME280;42994;51.606;9.988;2022-10-18T03:27:37;100002.66;;;14.55;100.00
57114;BME280;42994;51.606;9.988;2022-10-18T03:30:04;99993.91;;;14.53;100.00
57114;BME280;42994;51.606;9.988;2022-10-18T03:32:31;99996.41;;;14.54;100.00
57114;BME280;42994;51.606;9.988;2022-10-18T03:34:58;99996.06;;;14.57;100.00
57114;BME280;42994;51.606;9.988;2022-10-18T03:37:24;99987.28;;;14.55;100.00
57114;BME280;42994;51.606;9.988;2022-10-18T03:39:52;99999.97;;;14.55;100.00
57114;BME280;42994;51.606;9.988;2022-10-18T03:42:19;100001.16;;;14.52;100.00
57114;BME280;42994;51.606;9.988;2022-10-18T03:44:46;100006.50;;;14.46;100.00
57114;BME280;42994;51.606;9.988;2022-10-18T03:47:12;99999.69;;;14.50;100.00
57114;BME280;42994;51.606;9.988;2022-10-18T03:49:39;99990.56;;;14.51;100.00
57114;BME280;42994;51.606;9.988;2022-10-18T03:52:06;99994.94;;;14.52;100.00
57114;BME280;42994;51.606;9.988;2022-10-18T03:54:32;100001.16;;;14.52;100.00
57114;BME280;42994;51.606;9.988;2022-10-18T03:57:00;100001.16;;;14.52;100.00
57114;BME280;42994;51.606;9.988;2022-10-18T03:59:27;100007.38;;;14.53;100.00
57114;BME280;42994;51.606;9.988;2022-10-18T04:01:54;100004.91;;;14.51;100.00
57114;BME280;42994;51.606;9.988;2022-10-18T04:04:20;100009.44;;;14.51;100.00
57114;BME280;42994;51.606;9.988;2022-10-18T04:06:47;100005.91;;;14.50;100.00
57114;BME280;42994;51.606;9.988;2022-10-18T04:09:13;100000.22;;;14.38;100.00
57114;BME280;42994;51.606;9.988;2022-10-18T04:11:40;100003.09;;;14.37;100.00
57114;BME280;42994;51.606;9.988;2022-10-18T04:14:08;99985.94;;;14.45;100.00
57114;BME280;42994;51.606;9.988;2022-10-18T04:16:35;99999.81;;;14.41;100.00
57114;BME280;42994;51.606;9.988;2022-10-18T04:19:02;99994.59;;;14.40;100.00
57114;BME280;42994;51.606;9.988;2022-10-18T04:21:28;100000.00;;;14.40;100.00
57114;BME280;42994;51.606;9.988;2022-10-18T04:23:55;99998.78;;;14.42;100.00
57114;BME280;42994;51.606;9.988;2022-10-18T04:26:21;100001.69;;;14.41;100.00
57114;BME280;42994;51.606;9.988;2022-10-18T04:28:48;100012.84;;;14.38;100.00
57114;BME280;42994;51.606;9.988;2022-10-18T04:31:16;100013.47;;;14.40;100.00
57114;BME280;42994;51.606;9.988;2022-10-18T04:33:43;100017.03;;;14.40;100.00
57114;BME280;42994;51.606;9.988;2022-10-18T04:36:09;100018.06;;;14.39;100.00
57114;BME280;42994;51.606;9.988;2022-10-18T04:38:36;100026.28;;;14.31;100.00
57114;BME280;42994;51.606;9.988;2022-10-18T04:41:03;100026.94;;;14.33;100.00
57114;BME280;42994;51.606;9.988;2022-10-18T04:43:29;100030.19;;;14.29;100.00
57114;BME280;42994;51.606;9.988;2022-10-18T04:45:56;100025.81;;;14.28;100.00
57114;BME280;42994;51.606;9.988;2022-10-18T04:48:25;100025.25;;;14.32;100.00
57114;BME280;42994;51.606;9.988;2022-10-18T04:50:51;100019.84;;;14.32;100.00
57114;BME280;42994;51.606;9.988;2022-10-18T04:53:18;100027.13;;;14.32;100.00
57114;BME280;42994;51.606;9.988;2022-10-18T04:55:46;100027.75;;;14.34;100.00
57114;BME280;42994;51.606;9.988;2022-10-18T04:58:13;100018.84;;;14.33;100.00
57114;BME280;42994;51.606;9.988;2022-10-18T05:00:40;100018.19;;;14.31;100.00
57114;BME280;42994;51.606;9.988;2022-10-18T05:03:07;100013.63;;;14.32;100.00
57114;BME280;42994;51.606;9.988;2022-10-18T05:05:35;100019.03;;;14.32;100.00
57114;BME280;42994;51.606;9.988;2022-10-18T05:08:02;100018.84;;;14.33;100.00
57114;BME280;42994;51.606;9.988;2022-10-18T05:10:28;100014.19;;;14.27;100.00
57114;BME280;42994;51.606;9.988;2022-10-18T05:12:55;100029.00;;;14.16;100.00
57114;BME280;42994;51.606;9.988;2022-10-18T05:15:22;100022.31;;;14.12;100.00
57114;BME280;42994;51.606;9.988;2022-10-18T05:17:49;100028.66;;;14.04;100.00
57114;BME280;42994;51.606;9.988;2022-10-18T05:20:16;99997.72;;;14.00;100.00
57114;BME280;42994;51.606;9.988;2022-10-18T05:22:44;100032.19;;;14.05;100.00
57114;BME280;42994;51.606;9.988;2022-10-18T05:25:10;100026.16;;;14.03;100.00
57114;BME280;42994;51.606;9.988;2022-10-18T05:27:37;100032.91;;;14.14;100.00
57114;BME280;42994;51.606;9.988;2022-10-18T05:30:04;100030.69;;;14.17;100.00
57114;BME280;42994;51.606;9.988;2022-10-18T05:32:31;100028.00;;;14.17;100.00
57114;BME280;42994;51.606;9.988;2022-10-18T05:34:57;100028.56;;;14.13;100.00
57114;BME280;42994;51.606;9.988;2022-10-18T05:37:24;100026.13;;;14.18;100.00
57114;BME280;42994;51.606;9.988;2022-10-18T05:39:52;100029.84;;;14.17;100.00
57114;BME280;42994;51.606;9.988;2022-10-18T05:42:19;100024.84;;;14.14;100.00
57114;BME280;42994;51.606;9.988;2022-10-18T05:44:45;100019.06;;;14.17;100.00
57114;BME280;42994;51.606;9.988;2022-10-18T05:47:12;100020.72;;;14.18;100.00
57114;BME280;42994;51.606;9.988;2022-10-18T05:49:39;100015.09;;;14.13;100.00
57114;BME280;42994;51.606;9.988;2022-10-18T05:52:05;100018.03;;;14.18;100.00
57114;BME280;42994;51.606;9.988;2022-10-18T05:54:32;100014.50;;;14.17;100.00
57114;BME280;42994;51.606;9.988;2022-10-18T05:57:00;100014.50;;;14.17;100.00
57114;BME280;42994;51.606;9.988;2022-10-18T05:59:27;100021.31;;;14.13;100.00
57114;BME280;42994;51.606;9.988;2022-10-18T06:01:53;100030.03;;;14.15;100.00
57114;BME280;42994;51.606;9.988;2022-10-18T06:04:20;100018.63;;;14.13;100.00
57114;BME280;42994;51.606;9.988;2022-10-18T06:06:47;100026.06;;;14.11;100.00
57114;BME280;42994;51.606;9.988;2022-10-18T06:09:13;100016.94;;;14.12;100.00
57114;BME280;42994;51.606;9.988;2022-10-18T06:11:40;100019.63;;;14.12;100.00
57114;BME280;42994;51.606;9.988;2022-10-18T06:14:08;100020.84;;;14.10;100.00
57114;BME280;42994;51.606;9.988;2022-10-18T06:16:35;100020.03;;;14.09;100.00
57114;BME280;42994;51.606;9.988;2022-10-18T06:19:01;100023.72;;;14.08;100.00
57114;BME280;42994;51.606;9.988;2022-10-18T06:21:28;100021.88;;;14.09;100.00
57114;BME280;42994;51.606;9.988;2022-10-18T06:23:56;100030.72;;;14.02;100.00
57114;BME280;42994;51.606;9.988;2022-10-18T06:26:24;100028.13;;;13.94;100.00
57114;BME280;42994;51.606;9.988;2022-10-18T06:28:51;100027.59;;;13.84;100.00
57114;BME280;42994;51.606;9.988;2022-10-18T06:31:19;100036.41;;;13.78;100.00
57114;BME280;42994;51.606;9.988;2022-10-18T06:33:46;100043.03;;;13.75;100.00
57114;BME280;42994;51.606;9.988;2022-10-18T06:36:14;100041.16;;;13.76;100.00
57114;BME280;42994;51.606;9.988;2022-10-18T06:38:41;100045.81;;;13.82;100.00
57114;BME280;42994;51.606;9.988;2022-10-18T06:41:08;100050.44;;;13.88;100.00
57114;BME280;42994;51.606;9.988;2022-10-18T06:43:35;100043.00;;;13.90;100.00
57114;BME280;42994;51.606;9.988;2022-10-18T06:46:04;100040.13;;;13.92;100.00
57114;BME280;42994;51.606;9.988;2022-10-18T06:48:34;100043.47;;;13.94;100.00
57114;BME280;42994;51.606;9.988;2022-10-18T06:51:03;100041.81;;;13.93;100.00
57114;BME280;42994;51.606;9.988;2022-10-18T06:53:32;100060.22;;;13.89;100.00
57114;BME280;42994;51.606;9.988;2022-10-18T06:55:59;100053.03;;;13.81;100.00
57114;BME280;42994;51.606;9.988;2022-10-18T06:58:27;100051.56;;;13.79;100.00
57114;BME280;42994;51.606;9.988;2022-10-18T07:00:54;100055.03;;;13.73;100.00
57114;BME280;42994;51.606;9.988;2022-10-18T07:03:21;100054.56;;;13.69;100.00
57114;BME280;42994;51.606;9.988;2022-10-18T07:05:49;100051.66;;;13.71;100.00
57114;BME280;42994;51.606;9.988;2022-10-18T07:08:17;100049.88;;;13.78;100.00
57114;BME280;42994;51.606;9.988;2022-10-18T07:10:50;100051.47;;;13.72;100.00
57114;BME280;42994;51.606;9.988;2022-10-18T07:13:17;100048.50;;;13.67;100.00
57114;BME280;42994;51.606;9.988;2022-10-18T07:15:43;100048.13;;;13.70;100.00
57114;BME280;42994;51.606;9.988;2022-10-18T07:18:10;100044.03;;;13.74;100.00
57114;BME280;42994;51.606;9.988;2022-10-18T07:20:37;100048.88;;;13.79;100.00
57114;BME280;42994;51.606;9.988;2022-10-18T07:23:05;100040.78;;;13.79;100.00
57114;BME280;42994;51.606;9.988;2022-10-18T07:25:33;100047.88;;;13.80;100.00
57114;BME280;42994;51.606;9.988;2022-10-18T07:28:00;100044.13;;;13.81;100.00
57114;BME280;42994;51.606;9.988;2022-10-18T07:30:27;100050.16;;;13.83;100.00
57114;BME280;42994;51.606;9.988;2022-10-18T07:32:54;100056.31;;;13.77;100.00
57114;BME280;42994;51.606;9.988;2022-10-18T07:35:20;100064.47;;;13.69;100.00
57114;BME280;42994;51.606;9.988;2022-10-18T07:37:47;100053.53;;;13.70;100.00
57114;BME280;42994;51.606;9.988;2022-10-18T07:40:15;100056.50;;;13.75;100.00
57114;BME280;42994;51.606;9.988;2022-10-18T07:42:41;100068.56;;;13.79;100.00
57114;BME280;42994;51.606;9.988;2022-10-18T07:45:09;100069.22;;;13.81;100.00
57114;BME280;42994;51.606;9.988;2022-10-18T07:47:36;100072.78;;;13.82;100.00
57114;BME280;42994;51.606;9.988;2022-10-18T07:50:03;100073.78;;;13.81;100.00
57114;BME280;42994;51.606;9.988;2022-10-18T07:52:30;100075.81;;;13.79;100.00
57114;BME280;42994;51.606;9.988;2022-10-18T07:54:57;100079.34;;;13.79;100.00
57114;BME280;42994;51.606;9.988;2022-10-18T07:57:24;100080.63;;;13.83;100.00
57114;BME280;42994;51.606;9.988;2022-10-18T07:59:51;100083.16;;;13.85;100.00
57114;BME280;42994;51.606;9.988;2022-10-18T08:02:21;100087.16;;;13.89;100.00
57114;BME280;42994;51.606;9.988;2022-10-18T08:04:48;100085.31;;;13.90;100.00
57114;BME280;42994;51.606;9.988;2022-10-18T08:07:14;100078.88;;;13.91;100.00
57114;BME280;42994;51.606;9.988;2022-10-18T08:09:41;100077.03;;;13.91;100.00
57114;BME280;42994;51.606;9.988;2022-10-18T08:12:07;100080.38;;;13.93;100.00
57114;BME280;42994;51.606;9.988;2022-10-18T08:14:35;100077.31;;;13.96;100.00
57114;BME280;42994;51.606;9.988;2022-10-18T08:17:02;100071.91;;;13.96;100.00
57114;BME280;42994;51.606;9.988;2022-10-18T08:19:28;100075.44;;;13.97;100.00
57114;BME280;42994;51.606;9.988;2022-10-18T08:21:55;100068.84;;;13.99;100.00
57114;BME280;42994;51.606;9.988;2022-10-18T08:24:22;100075.91;;;14.00;100.00
57114;BME280;42994;51.606;9.988;2022-10-18T08:26:48;100070.13;;;14.03;100.00
57114;BME280;42994;51.606;9.988;2022-10-18T08:29:15;100072.63;;;14.05;100.00
57114;BME280;42994;51.606;9.988;2022-10-18T08:31:43;100063.53;;;14.06;100.00
57114;BME280;42994;51.606;9.988;2022-10-18T08:34:10;100068.56;;;14.09;100.00
57114;BME280;42994;51.606;9.988;2022-10-18T08:36:36;100065.47;;;14.12;100.00
57114;BME280;42994;51.606;9.988;2022-10-18T08:39:03;100065.66;;;14.11;100.00
57114;BME280;42994;51.606;9.988;2022-10-18T08:42:06;100075.50;;;14.18;100.00
57114;BME280;42994;51.606;9.988;2022-10-18T08:44:41;100074.66;;;14.18;100.00
57114;BME280;42994;51.606;9.988;2022-10-18T08:47:14;100082.75;;;14.18;100.00
57114;BME280;42994;51.606;9.988;2022-10-18T08:49:44;100079.69;;;14.21;100.00
57114;BME280;42994;51.606;9.988;2022-10-18T08:52:17;100089.69;;;14.27;100.00
57114;BME280;42994;51.606;9.988;2022-10-18T08:54:52;100092.41;;;14.27;100.00
57114;BME280;42994;51.606;9.988;2022-10-18T08:57:21;100098.81;;;14.26;100.00
57114;BME280;42994;51.606;9.988;2022-10-18T08:59:48;100113.97;;;14.27;100.00
57114;BME280;42994;51.606;9.988;2022-10-18T09:02:24;100111.94;;;14.29;100.00
57114;BME280;42994;51.606;9.988;2022-10-18T09:04:57;100114.81;;;14.28;100.00
57114;BME280;42994;51.606;9.988;2022-10-18T09:07:45;100113.97;;;14.27;100.00
57114;BME280;42994;51.606;9.988;2022-10-18T09:10:24;100107.19;;;14.31;100.00
57114;BME280;42994;51.606;9.988;2022-10-18T09:13:13;100118.22;;;14.36;100.00
57114;BME280;42994;51.606;9.988;2022-10-18T09:15:48;100116.94;;;14.32;100.00
57114;BME280;42994;51.606;9.988;2022-10-18T09:18:28;100110.72;;;14.32;100.00
57114;BME280;42994;51.606;9.988;2022-10-18T09:21:00;100111.19;;;14.35;100.00
57114;BME280;42994;51.606;9.988;2022-10-18T09:23:39;100111.19;;;14.35;100.00
57114;BME280;42994;51.606;9.988;2022-10-18T09:26:13;100107.84;;;14.33;100.00
57114;BME280;42994;51.606;9.988;2022-10-18T09:28:52;100109.94;;;14.38;100.00
57114;BME280;42994;51.606;9.988;2022-10-18T09:31:27;100109.59;;;14.41;100.00
57114;BME280;42994;51.606;9.988;2022-10-18T09:34:07;100116.00;;;14.40;100.00
57114;BME280;42994;51.606;9.988;2022-10-18T09:36:38;100115.81;;;14.41;100.00
57114;BME280;42994;51.606;9.988;2022-10-18T09:39:10;100114.78;;;14.42;100.00
57114;BME280;42994;51.606;9.988;2022-10-18T09:41:41;100117.75;;;14.48;100.00
57114;BME280;42994;51.606;9.988;2022-10-18T09:44:16;100117.19;;;14.52;100.00
57114;BME280;42994;51.606;9.988;2022-10-18T09:46:48;100128.34;;;14.49;100.00
57114;BME280;42994;51.606;9.988;2022-10-18T09:49:22;100128.34;;;14.49;100.00
57114;BME280;42994;51.606;9.988;2022-10-18T09:51:50;100127.78;;;14.54;100.00
57114;BME280;42994;51.606;9.988;2022-10-18T09:54:23;100126.09;;;14.53;100.00
57114;BME280;42994;51.606;9.988;2022-10-18T09:56:55;100123.22;;;14.54;100.00
57114;BME280;42994;51.606;9.988;2022-10-18T09:59:35;100135.50;;;14.57;100.00
57114;BME280;42994;51.606;9.988;2022-10-18T10:02:04;100140.03;;;14.56;100.00
57114;BME280;42994;51.606;9.988;2022-10-18T10:04:32;100134.41;;;14.51;100.00
57114;BME280;42994;51.606;9.988;2022-10-18T10:07:00;100132.16;;;14.55;100.00
57114;BME280;42994;51.606;9.988;2022-10-18T10:09:30;100138.38;;;14.55;100.00
57114;BME280;42994;51.606;9.988;2022-10-18T10:11:57;100135.13;;;14.60;100.00
57114;BME280;42994;51.606;9.988;2022-10-18T10:14:25;100135.13;;;14.60;100.00
57114;BME280;42994;51.606;9.988;2022-10-18T10:16:54;100124.16;;;14.61;100.00
57114;BME280;42994;51.606;9.988;2022-10-18T10:19:26;100130.41;;;14.62;100.00
57114;BME280;42994;51.606;9.988;2022-10-18T10:22:01;100132.34;;;14.68;100.00
57114;BME280;42994;51.606;9.988;2022-10-18T10:24:36;100135.41;;;14.65;100.00
57114;BME280;42994;51.606;9.988;2022-10-18T10:27:16;100134.84;;;14.70;100.00
57114;BME280;42994;51.606;9.988;2022-10-18T10:29:52;100117.63;;;14.71;100.00
57114;BME280;42994;51.606;9.988;2022-10-18T10:32:26;100132.00;;;14.78;100.00
57114;BME280;42994;51.606;9.988;2022-10-18T10:34:53;100125.53;;;14.72;100.00
57114;BME280;42994;51.606;9.988;2022-10-18T10:37:27;100130.53;;;14.75;100.00
57114;BME280;42994;51.606;9.988;2022-10-18T10:43:13;100132.19;;;14.76;100.00
57114;BME280;42994;51.606;9.988;2022-10-18T10:45:55;100137.88;;;14.82;100.00
57114;BME280;42994;51.606;9.988;2022-10-18T10:48:23;100140.38;;;14.83;100.00
57114;BME280;42994;51.606;9.988;2022-10-18T10:51:02;100136.41;;;14.79;100.00
57114;BME280;42994;51.606;9.988;2022-10-18T10:53:41;100138.69;;;14.82;100.00
57114;BME280;42994;51.606;9.988;2022-10-18T10:56:16;100151.19;;;14.83;100.00
57114;BME280;42994;51.606;9.988;2022-10-18T10:58:43;100152.28;;;14.89;100.00
57114;BME280;42994;51.606;9.988;2022-10-18T11:01:22;100147.91;;;14.88;100.00
57114;BME280;42994;51.606;9.988;2022-10-18T11:03:52;100146.88;;;14.89;100.00
57114;BME280;42994;51.606;9.988;2022-10-18T11:06:38;100146.75;;;14.97;100.00
57114;BME280;42994;51.606;9.988;2022-10-18T11:09:23;100143.84;;;14.98;100.00
57114;BME280;42994;51.606;9.988;2022-10-18T11:12:01;100142.19;;;14.97;100.00
57114;BME280;42994;51.606;9.988;2022-10-18T11:14:34;100136.59;;;14.99;100.00
57114;BME280;42994;51.606;9.988;2022-10-18T11:17:10;100131.00;;;15.01;100.00
57114;BME280;42994;51.606;9.988;2022-10-18T11:19:43;100132.75;;;15.08;100.00
57114;BME280;42994;51.606;9.988;2022-10-18T11:22:17;100122.56;;;15.10;100.00
57114;BME280;42994;51.606;9.988;2022-10-18T11:24:48;100128.25;;;15.15;100.00
57114;BME280;42994;51.606;9.988;2022-10-18T11:27:19;100125.38;;;15.24;100.00
57114;BME280;42994;51.606;9.988;2022-10-18T11:30:01;100124.09;;;15.19;100.00
57114;BME280;42994;51.606;9.988;2022-10-18T11:32:33;100116.91;;;15.27;100.00
57114;BME280;42994;51.606;9.988;2022-10-18T11:35:21;100123.75;;;15.29;100.00
57114;BME280;42994;51.606;9.988;2022-10-18T11:37:58;100127.50;;;15.28;100.00
57114;BME280;42994;51.606;9.988;2022-10-18T11:40:41;100127.09;;;15.31;100.00
57114;BME280;42994;51.606;9.988;2022-10-18T11:43:15;100130.22;;;15.28;100.00
57114;BME280;42994;51.606;9.988;2022-10-18T11:45:51;100130.41;;;15.27;100.00
57114;BME280;42994;51.606;9.988;2022-10-18T11:48:35;100123.56;;;15.31;100.00
57114;BME280;42994;51.606;9.988;2022-10-18T11:51:10;100114.72;;;15.37;100.00
57114;BME280;42994;51.606;9.988;2022-10-18T11:53:45;100117.41;;;15.37;100.00
57114;BME280;42994;51.606;9.988;2022-10-18T11:56:22;100118.69;;;15.41;100.00
57114;BME280;42994;51.606;9.988;2022-10-18T11:59:10;100111.84;;;15.45;100.00
57114;BME280;42994;51.606;9.988;2022-10-18T12:01:49;100114.78;;;15.50;100.00
57114;BME280;42994;51.606;9.988;2022-10-18T12:04:18;100104.81;;;15.51;100.00
57114;BME280;42994;51.606;9.988;2022-10-18T12:06:49;100113.75;;;15.51;100.00
57114;BME280;42994;51.606;9.988;2022-10-18T12:09:24;100121.41;;;15.48;100.00
57114;BME280;42994;51.606;9.988;2022-10-18T12:11:57;100121.00;;;15.44;100.00
57114;BME280;42994;51.606;9.988;2022-10-18T12:14:29;100127.03;;;15.46;100.00
57114;BME280;42994;51.606;9.988;2022-10-18T12:17:01;100121.41;;;15.48;100.00
57114;BME280;42994;51.606;9.988;2022-10-18T12:19:28;100123.09;;;15.49;100.00
57114;BME280;42994;51.606;9.988;2022-10-18T12:22:06;100123.16;;;15.55;100.00
57114;BME280;42994;51.606;9.988;2022-10-18T12:24:36;100110.28;;;15.57;100.00
57114;BME280;42994;51.606;9.988;2022-10-18T12:27:04;100116.06;;;15.54;100.00
57114;BME280;42994;51.606;9.988;2022-10-18T12:29:34;100117.78;;;15.62;100.00
57114;BME280;42994;51.606;9.988;2022-10-18T12:32:07;100109.47;;;15.64;100.00
57114;BME280;42994;51.606;9.988;2022-10-18T12:34:41;100110.53;;;15.63;100.00
57114;BME280;42994;51.606;9.988;2022-10-18T12:37:20;100106.78;;;15.64;100.00
57114;BME280;42994;51.606;9.988;2022-10-18T12:39:52;100106.38;;;15.67;100.00
57114;BME280;42994;51.606;9.988;2022-10-18T12:42:25;100110.75;;;15.68;100.00
57114;BME280;42994;51.606;9.988;2022-10-18T12:45:00;100115.31;;;15.67;100.00
57114;BME280;42994;51.606;9.988;2022-10-18T12:47:28;100108.25;;;15.66;100.00
57114;BME280;42994;51.606;9.988;2022-10-18T12:49:57;100107.47;;;15.72;100.00
57114;BME280;42994;51.606;9.988;2022-10-18T12:52:25;100107.31;;;15.74;100.00
57114;BME280;42994;51.606;9.988;2022-10-18T12:55:11;100105.28;;;15.83;100.00
57114;BME280;42994;51.606;9.988;2022-10-18T12:58:24;100110.88;;;15.81;100.00
57114;BME280;42994;51.606;9.988;2022-10-18T13:01:02;100112.78;;;15.87;100.00
57114;BME280;42994;51.606;9.988;2022-10-18T13:03:38;100107.38;;;15.87;100.00
57114;BME280;42994;51.606;9.988;2022-10-18T13:06:06;100103.41;;;15.83;100.00